sensor_id;sensor_type;location;lat;lon;timestamp;P1;durP1;ratioP1;P2;durP2;ratioP2
27219;SDS011;45274;52.266;10.790;2023-12-29T00:01:54;1.75;;;0.82;;
27219;SDS011;45274;52.266;10.790;2023-12-29T00:04:19;7.47;;;1.27;;
27219;SDS011;45274;52.266;10.790;2023-12-29T00:06:45;7.38;;;1.55;;
27219;SDS011;45274;52.266;10.790;2023-12-29T00:09:10;5.30;;;1.50;;
27219;SDS011;45274;52.266;10.790;2023-12-29T00:11:36;2.95;;;1.20;;
27219;SDS011;45274;52.266;10.790;2023-12-29T00:14:01;2.75;;;1.40;;
27219;SDS011;45274;52.266;10.790;2023-12-29T00:16:29;4.10;;;1.30;;
27219;SDS011;45274;52.266;10.790;2023-12-29T00:18:54;5.07;;;1.30;;
27219;SDS011;45274;52.266;10.790;2023-12-29T00:21:19;2.85;;;1.20;;
27219;SDS011;45274;52.266;10.790;2023-12-29T00:23:46;3.28;;;1.00;;
27219;SDS011;45274;52.266;10.790;2023-12-29T00:26:11;3.58;;;1.13;;
27219;SDS011;45274;52.266;10.790;2023-12-29T00:28:36;7.95;;;1.33;;
27219;SDS011;45274;52.266;10.790;2023-12-29T00:31:05;1.73;;;0.88;;
27219;SDS011;45274;52.266;10.790;2023-12-29T00:33:30;4.43;;;1.60;;
27219;SDS011;45274;52.266;10.790;2023-12-29T00:35:57;5.13;;;0.90;;
27219;SDS011;45274;52.266;10.790;2023-12-29T00:38:22;2.38;;;1.17;;
27219;SDS011;45274;52.266;10.790;2023-12-29T00:40:47;2.58;;;1.10;;
27219;SDS011;45274;52.266;10.790;2023-12-29T00:43:12;4.07;;;1.23;;
27219;SDS011;45274;52.266;10.790;2023-12-29T00:45:37;3.78;;;1.30;;
27219;SDS011;45274;52.266;10.790;2023-12-29T00:48:03;2.33;;;1.02;;
27219;SDS011;45274;52.266;10.790;2023-12-29T00:50:28;2.75;;;1.20;;
27219;SDS011;45274;52.266;10.790;2023-12-29T00:52:54;2.58;;;1.30;;
27219;SDS011;45274;52.266;10.790;2023-12-29T00:55:19;2.35;;;1.10;;
27219;SDS011;45274;52.266;10.790;2023-12-29T00:57:44;2.67;;;1.38;;
27219;SDS011;45274;52.266;10.790;2023-12-29T01:00:11;3.27;;;1.33;;
27219;SDS011;45274;52.266;10.790;2023-12-29T01:02:37;4.13;;;1.27;;
27219;SDS011;45274;52.266;10.790;2023-12-29T01:05:02;3.55;;;1.00;;
27219;SDS011;45274;52.266;10.790;2023-12-29T01:07:28;3.60;;;1.40;;
27219;SDS011;45274;52.266;10.790;2023-12-29T01:09:53;3.17;;;1.10;;
27219;SDS011;45274;52.266;10.790;2023-12-29T01:12:18;2.08;;;0.93;;
27219;SDS011;45274;52.266;10.790;2023-12-29T01:14:43;4.32;;;1.23;;
27219;SDS011;45274;52.266;10.790;2023-12-29T01:17:09;2.85;;;1.15;;
27219;SDS011;45274;52.266;10.790;2023-12-29T01:19:36;5.22;;;1.45;;
27219;SDS011;45274;52.266;10.790;2023-12-29T01:22:01;4.85;;;1.15;;
27219;SDS011;45274;52.266;10.790;2023-12-29T01:24:27;3.80;;;1.38;;
27219;SDS011;45274;52.266;10.790;2023-12-29T01:26:52;4.23;;;1.53;;
27219;SDS011;45274;52.266;10.790;2023-12-29T01:29:17;5.70;;;1.50;;
27219;SDS011;45274;52.266;10.790;2023-12-29T01:31:42;2.60;;;1.30;;
27219;SDS011;45274;52.266;10.790;2023-12-29T01:34:07;2.30;;;0.87;;
27219;SDS011;45274;52.266;10.790;2023-12-29T01:36:35;4.10;;;1.47;;
27219;SDS011;45274;52.266;10.790;2023-12-29T01:39:01;5.68;;;1.38;;
27219;SDS011;45274;52.266;10.790;2023-12-29T01:41:28;3.58;;;1.30;;
27219;SDS011;45274;52.266;10.790;2023-12-29T01:46:21;3.80;;;1.25;;
27219;SDS011;45274;52.266;10.790;2023-12-29T01:48:46;2.83;;;1.02;;
27219;SDS011;45274;52.266;10.790;2023-12-29T01:51:11;3.73;;;1.20;;
27219;SDS011;45274;52.266;10.790;2023-12-29T01:53:37;4.53;;;1.20;;
27219;SDS011;45274;52.266;10.790;2023-12-29T01:56:02;3.63;;;1.25;;
27219;SDS011;45274;52.266;10.790;2023-12-29T01:58:28;2.75;;;0.93;;
27219;SDS011;45274;52.266;10.790;2023-12-29T02:00:53;2.72;;;1.02;;
27219;SDS011;45274;52.266;10.790;2023-12-29T02:03:18;7.77;;;1.13;;
27219;SDS011;45274;52.266;10.790;2023-12-29T02:05:43;2.40;;;1.10;;
27219;SDS011;45274;52.266;10.790;2023-12-29T02:08:10;3.50;;;1.05;;
27219;SDS011;45274;52.266;10.790;2023-12-29T02:10:36;4.32;;;1.08;;
27219;SDS011;45274;52.266;10.790;2023-12-29T02:13:02;3.55;;;1.15;;
27219;SDS011;45274;52.266;10.790;2023-12-29T02:15:27;3.83;;;1.20;;
27219;SDS011;45274;52.266;10.790;2023-12-29T02:17:56;3.85;;;1.05;;
27219;SDS011;45274;52.266;10.790;2023-12-29T02:20:22;3.67;;;1.00;;
27219;SDS011;45274;52.266;10.790;2023-12-29T02:22:48;4.55;;;1.15;;
27219;SDS011;45274;52.266;10.790;2023-12-29T02:25:13;2.58;;;0.90;;
27219;SDS011;45274;52.266;10.790;2023-12-29T02:30:13;1.80;;;0.80;;
27219;SDS011;45274;52.266;10.790;2023-12-29T02:32:41;3.10;;;1.10;;
27219;SDS011;45274;52.266;10.790;2023-12-29T02:35:11;2.95;;;1.02;;
27219;SDS011;45274;52.266;10.790;2023-12-29T02:37:37;5.50;;;1.35;;
27219;SDS011;45274;52.266;10.790;2023-12-29T02:40:03;1.52;;;0.80;;
27219;SDS011;45274;52.266;10.790;2023-12-29T02:42:28;5.90;;;1.08;;
27219;SDS011;45274;52.266;10.790;2023-12-29T02:44:54;3.30;;;1.10;;
27219;SDS011;45274;52.266;10.790;2023-12-29T02:47:19;1.88;;;0.85;;
27219;SDS011;45274;52.266;10.790;2023-12-29T02:49:46;1.73;;;0.90;;
27219;SDS011;45274;52.266;10.790;2023-12-29T02:52:11;2.58;;;1.08;;
27219;SDS011;45274;52.266;10.790;2023-12-29T02:54:37;1.47;;;0.80;;
27219;SDS011;45274;52.266;10.790;2023-12-29T02:57:02;2.80;;;0.90;;
27219;SDS011;45274;52.266;10.790;2023-12-29T02:59:27;5.35;;;0.93;;
27219;SDS011;45274;52.266;10.790;2023-12-29T03:01:52;4.43;;;0.90;;
27219;SDS011;45274;52.266;10.790;2023-12-29T03:04:17;2.93;;;1.03;;
27219;SDS011;45274;52.266;10.790;2023-12-29T03:06:43;2.53;;;0.98;;
27219;SDS011;45274;52.266;10.790;2023-12-29T03:09:08;4.15;;;1.35;;
27219;SDS011;45274;52.266;10.790;2023-12-29T03:11:33;2.60;;;0.80;;
27219;SDS011;45274;52.266;10.790;2023-12-29T03:13:58;3.63;;;0.90;;
27219;SDS011;45274;52.266;10.790;2023-12-29T03:16:24;1.75;;;0.73;;
27219;SDS011;45274;52.266;10.790;2023-12-29T03:18:49;2.90;;;0.77;;
27219;SDS011;45274;52.266;10.790;2023-12-29T03:21:14;2.63;;;0.90;;
27219;SDS011;45274;52.266;10.790;2023-12-29T03:23:39;1.73;;;0.80;;
27219;SDS011;45274;52.266;10.790;2023-12-29T03:26:05;1.50;;;0.77;;
27219;SDS011;45274;52.266;10.790;2023-12-29T03:28:30;3.15;;;1.08;;
27219;SDS011;45274;52.266;10.790;2023-12-29T03:30:55;1.85;;;0.70;;
27219;SDS011;45274;52.266;10.790;2023-12-29T03:33:20;3.50;;;0.93;;
27219;SDS011;45274;52.266;10.790;2023-12-29T03:35:46;5.13;;;0.80;;
27219;SDS011;45274;52.266;10.790;2023-12-29T03:38:12;4.13;;;1.00;;
27219;SDS011;45274;52.266;10.790;2023-12-29T03:40:37;1.77;;;0.70;;
27219;SDS011;45274;52.266;10.790;2023-12-29T03:43:03;1.88;;;0.70;;
27219;SDS011;45274;52.266;10.790;2023-12-29T03:45:28;3.28;;;1.10;;
27219;SDS011;45274;52.266;10.790;2023-12-29T03:47:53;1.88;;;0.63;;
27219;SDS011;45274;52.266;10.790;2023-12-29T03:50:18;1.50;;;0.70;;
27219;SDS011;45274;52.266;10.790;2023-12-29T03:52:43;2.58;;;0.82;;
27219;SDS011;45274;52.266;10.790;2023-12-29T03:55:09;1.42;;;0.65;;
27219;SDS011;45274;52.266;10.790;2023-12-29T03:57:36;1.38;;;0.68;;
27219;SDS011;45274;52.266;10.790;2023-12-29T04:00:01;3.10;;;0.97;;
27219;SDS011;45274;52.266;10.790;2023-12-29T04:02:26;2.07;;;0.67;;
27219;SDS011;45274;52.266;10.790;2023-12-29T04:04:51;2.47;;;0.97;;
27219;SDS011;45274;52.266;10.790;2023-12-29T04:07:16;1.17;;;0.63;;
27219;SDS011;45274;52.266;10.790;2023-12-29T04:09:42;0.80;;;0.80;;
27219;SDS011;45274;52.266;10.790;2023-12-29T04:12:07;2.90;;;0.80;;
27219;SDS011;45274;52.266;10.790;2023-12-29T04:14:32;3.63;;;0.80;;
27219;SDS011;45274;52.266;10.790;2023-12-29T04:16:58;3.35;;;0.90;;
27219;SDS011;45274;52.266;10.790;2023-12-29T04:19:24;2.03;;;0.90;;
27219;SDS011;45274;52.266;10.790;2023-12-29T04:21:49;2.13;;;0.80;;
27219;SDS011;45274;52.266;10.790;2023-12-29T04:24:14;1.17;;;0.60;;
27219;SDS011;45274;52.266;10.790;2023-12-29T04:26:39;2.65;;;0.90;;
27219;SDS011;45274;52.266;10.790;2023-12-29T04:29:08;1.20;;;0.77;;
27219;SDS011;45274;52.266;10.790;2023-12-29T04:31:33;2.15;;;0.70;;
27219;SDS011;45274;52.266;10.790;2023-12-29T04:33:58;3.05;;;1.00;;
27219;SDS011;45274;52.266;10.790;2023-12-29T04:36:23;3.90;;;1.00;;
27219;SDS011;45274;52.266;10.790;2023-12-29T04:38:49;2.73;;;1.10;;
27219;SDS011;45274;52.266;10.790;2023-12-29T04:41:14;3.93;;;1.37;;
27219;SDS011;45274;52.266;10.790;2023-12-29T04:43:39;1.42;;;0.68;;
27219;SDS011;45274;52.266;10.790;2023-12-29T04:46:05;2.58;;;0.80;;
27219;SDS011;45274;52.266;10.790;2023-12-29T04:48:30;3.17;;;1.10;;
27219;SDS011;45274;52.266;10.790;2023-12-29T04:50:55;2.38;;;0.80;;
27219;SDS011;45274;52.266;10.790;2023-12-29T04:53:20;3.37;;;0.90;;
27219;SDS011;45274;52.266;10.790;2023-12-29T04:55:45;1.65;;;0.82;;
27219;SDS011;45274;52.266;10.790;2023-12-29T04:58:11;3.23;;;0.87;;
27219;SDS011;45274;52.266;10.790;2023-12-29T05:00:36;3.90;;;0.90;;
27219;SDS011;45274;52.266;10.790;2023-12-29T05:03:01;1.58;;;0.93;;
27219;SDS011;45274;52.266;10.790;2023-12-29T05:05:26;3.37;;;0.90;;
27219;SDS011;45274;52.266;10.790;2023-12-29T05:07:52;3.22;;;0.80;;
27219;SDS011;45274;52.266;10.790;2023-12-29T05:10:17;1.90;;;0.70;;
27219;SDS011;45274;52.266;10.790;2023-12-29T05:12:42;2.55;;;0.90;;
27219;SDS011;45274;52.266;10.790;2023-12-29T05:15:07;2.35;;;0.82;;
27219;SDS011;45274;52.266;10.790;2023-12-29T05:17:33;1.75;;;0.93;;
27219;SDS011;45274;52.266;10.790;2023-12-29T05:19:58;2.38;;;0.80;;
27219;SDS011;45274;52.266;10.790;2023-12-29T05:22:23;1.67;;;0.70;;
27219;SDS011;45274;52.266;10.790;2023-12-29T05:24:49;1.17;;;0.90;;
27219;SDS011;45274;52.266;10.790;2023-12-29T05:27:14;1.35;;;0.93;;
27219;SDS011;45274;52.266;10.790;2023-12-29T05:29:39;4.25;;;1.00;;
27219;SDS011;45274;52.266;10.790;2023-12-29T05:32:05;1.70;;;0.90;;
27219;SDS011;45274;52.266;10.790;2023-12-29T05:34:30;2.35;;;0.85;;
27219;SDS011;45274;52.266;10.790;2023-12-29T05:36:55;2.80;;;1.00;;
27219;SDS011;45274;52.266;10.790;2023-12-29T05:39:21;2.42;;;1.00;;
27219;SDS011;45274;52.266;10.790;2023-12-29T05:41:46;4.25;;;1.00;;
27219;SDS011;45274;52.266;10.790;2023-12-29T05:44:11;1.80;;;0.85;;
27219;SDS011;45274;52.266;10.790;2023-12-29T05:46:36;1.40;;;0.80;;
27219;SDS011;45274;52.266;10.790;2023-12-29T05:49:02;2.65;;;1.00;;
27219;SDS011;45274;52.266;10.790;2023-12-29T05:51:27;3.10;;;0.88;;
27219;SDS011;45274;52.266;10.790;2023-12-29T05:53:52;1.95;;;0.90;;
27219;SDS011;45274;52.266;10.790;2023-12-29T05:56:18;2.55;;;0.80;;
27219;SDS011;45274;52.266;10.790;2023-12-29T05:58:43;3.05;;;1.08;;
27219;SDS011;45274;52.266;10.790;2023-12-29T06:01:08;2.85;;;1.00;;
27219;SDS011;45274;52.266;10.790;2023-12-29T06:03:34;2.35;;;0.90;;
27219;SDS011;45274;52.266;10.790;2023-12-29T06:05:59;1.98;;;0.80;;
27219;SDS011;45274;52.266;10.790;2023-12-29T06:08:24;4.43;;;1.17;;
27219;SDS011;45274;52.266;10.790;2023-12-29T06:10:49;2.17;;;1.05;;
27219;SDS011;45274;52.266;10.790;2023-12-29T06:13:15;1.90;;;1.30;;
27219;SDS011;45274;52.266;10.790;2023-12-29T06:15:40;3.28;;;1.02;;
27219;SDS011;45274;52.266;10.790;2023-12-29T06:18:05;2.42;;;1.08;;
27219;SDS011;45274;52.266;10.790;2023-12-29T06:20:31;3.92;;;1.08;;
27219;SDS011;45274;52.266;10.790;2023-12-29T06:22:56;1.98;;;1.10;;
27219;SDS011;45274;52.266;10.790;2023-12-29T06:25:21;2.17;;;1.25;;
27219;SDS011;45274;52.266;10.790;2023-12-29T06:27:46;2.20;;;1.13;;
27219;SDS011;45274;52.266;10.790;2023-12-29T06:30:12;2.63;;;1.20;;
27219;SDS011;45274;52.266;10.790;2023-12-29T06:32:38;2.28;;;1.00;;
27219;SDS011;45274;52.266;10.790;2023-12-29T06:35:05;2.28;;;0.95;;
27219;SDS011;45274;52.266;10.790;2023-12-29T06:37:30;5.05;;;1.40;;
27219;SDS011;45274;52.266;10.790;2023-12-29T06:39:56;2.05;;;0.90;;
27219;SDS011;45274;52.266;10.790;2023-12-29T06:42:21;2.10;;;0.95;;
27219;SDS011;45274;52.266;10.790;2023-12-29T06:44:47;1.88;;;1.00;;
27219;SDS011;45274;52.266;10.790;2023-12-29T06:47:12;2.70;;;1.00;;
27219;SDS011;45274;52.266;10.790;2023-12-29T06:49:38;3.63;;;1.13;;
27219;SDS011;45274;52.266;10.790;2023-12-29T06:52:04;2.63;;;1.00;;
27219;SDS011;45274;52.266;10.790;2023-12-29T06:54:29;3.10;;;0.98;;
27219;SDS011;45274;52.266;10.790;2023-12-29T06:56:54;2.22;;;0.90;;
27219;SDS011;45274;52.266;10.790;2023-12-29T06:59:20;3.63;;;0.80;;
27219;SDS011;45274;52.266;10.790;2023-12-29T07:01:46;2.67;;;1.27;;
27219;SDS011;45274;52.266;10.790;2023-12-29T07:04:11;4.30;;;1.10;;
27219;SDS011;45274;52.266;10.790;2023-12-29T07:06:37;2.88;;;1.10;;
27219;SDS011;45274;52.266;10.790;2023-12-29T07:09:02;3.83;;;1.00;;
27219;SDS011;45274;52.266;10.790;2023-12-29T07:11:28;1.65;;;0.80;;
27219;SDS011;45274;52.266;10.790;2023-12-29T07:13:53;6.35;;;1.20;;
27219;SDS011;45274;52.266;10.790;2023-12-29T07:16:19;2.72;;;1.05;;
27219;SDS011;45274;52.266;10.790;2023-12-29T07:18:45;3.70;;;1.10;;
27219;SDS011;45274;52.266;10.790;2023-12-29T07:21:11;2.10;;;0.95;;
27219;SDS011;45274;52.266;10.790;2023-12-29T07:23:37;4.13;;;1.10;;
27219;SDS011;45274;52.266;10.790;2023-12-29T07:26:02;4.25;;;1.08;;
27219;SDS011;45274;52.266;10.790;2023-12-29T07:28:27;4.43;;;1.10;;
27219;SDS011;45274;52.266;10.790;2023-12-29T07:30:53;6.20;;;1.20;;
27219;SDS011;45274;52.266;10.790;2023-12-29T07:33:18;4.40;;;1.00;;
27219;SDS011;45274;52.266;10.790;2023-12-29T07:35:43;4.22;;;1.23;;
27219;SDS011;45274;52.266;10.790;2023-12-29T07:38:09;3.58;;;1.10;;
27219;SDS011;45274;52.266;10.790;2023-12-29T07:40:34;4.22;;;1.02;;
27219;SDS011;45274;52.266;10.790;2023-12-29T07:43:00;4.55;;;1.33;;
27219;SDS011;45274;52.266;10.790;2023-12-29T07:45:25;3.40;;;1.00;;
27219;SDS011;45274;52.266;10.790;2023-12-29T07:47:50;3.22;;;1.00;;
27219;SDS011;45274;52.266;10.790;2023-12-29T07:50:15;2.33;;;0.90;;
27219;SDS011;45274;52.266;10.790;2023-12-29T07:52:42;5.38;;;1.30;;
27219;SDS011;45274;52.266;10.790;2023-12-29T07:55:07;4.18;;;1.25;;
27219;SDS011;45274;52.266;10.790;2023-12-29T07:57:32;4.25;;;0.90;;
27219;SDS011;45274;52.266;10.790;2023-12-29T07:59:57;2.70;;;1.13;;
27219;SDS011;45274;52.266;10.790;2023-12-29T08:02:23;2.72;;;0.80;;
27219;SDS011;45274;52.266;10.790;2023-12-29T08:04:48;1.48;;;0.82;;
27219;SDS011;45274;52.266;10.790;2023-12-29T08:07:13;3.15;;;1.08;;
27219;SDS011;45274;52.266;10.790;2023-12-29T08:09:40;5.72;;;1.25;;
27219;SDS011;45274;52.266;10.790;2023-12-29T08:12:05;4.97;;;1.10;;
27219;SDS011;45274;52.266;10.790;2023-12-29T08:14:31;5.20;;;1.02;;
27219;SDS011;45274;52.266;10.790;2023-12-29T08:16:57;2.28;;;0.90;;
27219;SDS011;45274;52.266;10.790;2023-12-29T08:19:22;3.00;;;0.93;;
27219;SDS011;45274;52.266;10.790;2023-12-29T08:21:47;3.65;;;1.00;;
27219;SDS011;45274;52.266;10.790;2023-12-29T08:24:13;3.15;;;1.00;;
27219;SDS011;45274;52.266;10.790;2023-12-29T08:26:43;3.33;;;1.08;;
27219;SDS011;45274;52.266;10.790;2023-12-29T08:29:09;3.97;;;0.98;;
27219;SDS011;45274;52.266;10.790;2023-12-29T08:31:34;4.53;;;1.20;;
27219;SDS011;45274;52.266;10.790;2023-12-29T08:34:00;5.20;;;1.20;;
27219;SDS011;45274;52.266;10.790;2023-12-29T08:36:25;3.50;;;1.00;;
27219;SDS011;45274;52.266;10.790;2023-12-29T08:38:50;2.83;;;0.90;;
27219;SDS011;45274;52.266;10.790;2023-12-29T08:41:18;7.90;;;1.25;;
27219;SDS011;45274;52.266;10.790;2023-12-29T08:43:43;3.20;;;0.90;;
27219;SDS011;45274;52.266;10.790;2023-12-29T08:46:09;3.53;;;1.20;;
27219;SDS011;45274;52.266;10.790;2023-12-29T08:48:35;4.00;;;1.13;;
27219;SDS011;45274;52.266;10.790;2023-12-29T08:51:00;5.03;;;1.35;;
27219;SDS011;45274;52.266;10.790;2023-12-29T08:53:26;3.58;;;1.00;;
27219;SDS011;45274;52.266;10.790;2023-12-29T08:55:51;4.95;;;1.10;;
27219;SDS011;45274;52.266;10.790;2023-12-29T08:58:16;5.30;;;1.20;;
27219;SDS011;45274;52.266;10.790;2023-12-29T09:00:41;6.18;;;1.55;;
27219;SDS011;45274;52.266;10.790;2023-12-29T09:03:07;5.85;;;1.27;;
27219;SDS011;45274;52.266;10.790;2023-12-29T09:05:32;6.57;;;1.52;;
27219;SDS011;45274;52.266;10.790;2023-12-29T09:07:57;4.17;;;1.03;;
27219;SDS011;45274;52.266;10.790;2023-12-29T09:10:23;5.05;;;1.30;;
27219;SDS011;45274;52.266;10.790;2023-12-29T09:12:48;4.72;;;1.05;;
27219;SDS011;45274;52.266;10.790;2023-12-29T09:15:14;5.40;;;1.13;;
27219;SDS011;45274;52.266;10.790;2023-12-29T09:17:39;6.30;;;1.30;;
27219;SDS011;45274;52.266;10.790;2023-12-29T09:20:05;3.92;;;1.00;;
27219;SDS011;45274;52.266;10.790;2023-12-29T09:22:31;5.10;;;1.23;;
27219;SDS011;45274;52.266;10.790;2023-12-29T09:24:56;6.78;;;1.10;;
27219;SDS011;45274;52.266;10.790;2023-12-29T09:27:21;3.80;;;1.80;;
27219;SDS011;45274;52.266;10.790;2023-12-29T09:29:47;5.87;;;1.27;;
27219;SDS011;45274;52.266;10.790;2023-12-29T09:32:12;4.45;;;0.70;;
27219;SDS011;45274;52.266;10.790;2023-12-29T09:34:37;6.28;;;1.17;;
27219;SDS011;45274;52.266;10.790;2023-12-29T09:37:03;4.83;;;1.10;;
27219;SDS011;45274;52.266;10.790;2023-12-29T09:39:28;4.03;;;1.02;;
27219;SDS011;45274;52.266;10.790;2023-12-29T09:41:55;3.67;;;1.10;;
27219;SDS011;45274;52.266;10.790;2023-12-29T09:44:22;5.80;;;1.10;;
27219;SDS011;45274;52.266;10.790;2023-12-29T09:46:49;5.60;;;1.10;;
27219;SDS011;45274;52.266;10.790;2023-12-29T09:49:14;4.28;;;1.05;;
27219;SDS011;45274;52.266;10.790;2023-12-29T09:51:41;4.88;;;1.27;;
27219;SDS011;45274;52.266;10.790;2023-12-29T09:54:07;2.88;;;1.17;;
27219;SDS011;45274;52.266;10.790;2023-12-29T09:56:33;4.35;;;1.00;;
27219;SDS011;45274;52.266;10.790;2023-12-29T09:58:59;5.00;;;1.38;;
27219;SDS011;45274;52.266;10.790;2023-12-29T10:01:24;4.38;;;1.10;;
27219;SDS011;45274;52.266;10.790;2023-12-29T10:03:52;3.75;;;1.20;;
27219;SDS011;45274;52.266;10.790;2023-12-29T10:06:19;4.80;;;1.13;;
27219;SDS011;45274;52.266;10.790;2023-12-29T10:08:46;3.03;;;1.08;;
27219;SDS011;45274;52.266;10.790;2023-12-29T10:11:13;3.50;;;1.02;;
27219;SDS011;45274;52.266;10.790;2023-12-29T10:13:38;4.55;;;1.00;;
27219;SDS011;45274;52.266;10.790;2023-12-29T10:18:37;2.28;;;0.85;;
27219;SDS011;45274;52.266;10.790;2023-12-29T10:21:12;4.88;;;1.10;;
27219;SDS011;45274;52.266;10.790;2023-12-29T10:23:42;2.78;;;0.80;;
27219;SDS011;45274;52.266;10.790;2023-12-29T10:26:11;2.10;;;0.70;;
27219;SDS011;45274;52.266;10.790;2023-12-29T10:28:36;4.07;;;0.88;;
27219;SDS011;45274;52.266;10.790;2023-12-29T10:31:02;5.15;;;1.15;;
27219;SDS011;45274;52.266;10.790;2023-12-29T10:33:29;4.35;;;0.90;;
27219;SDS011;45274;52.266;10.790;2023-12-29T10:35:57;3.67;;;0.90;;
27219;SDS011;45274;52.266;10.790;2023-12-29T10:38:24;2.55;;;0.60;;
27219;SDS011;45274;52.266;10.790;2023-12-29T10:40:49;3.13;;;0.60;;
27219;SDS011;45274;52.266;10.790;2023-12-29T10:43:14;5.60;;;0.98;;
27219;SDS011;45274;52.266;10.790;2023-12-29T10:45:46;1.52;;;0.68;;
27219;SDS011;45274;52.266;10.790;2023-12-29T10:48:12;3.35;;;0.90;;
27219;SDS011;45274;52.266;10.790;2023-12-29T10:50:46;2.28;;;0.70;;
27219;SDS011;45274;52.266;10.790;2023-12-29T10:53:12;1.92;;;0.95;;
27219;SDS011;45274;52.266;10.790;2023-12-29T10:55:37;2.38;;;0.50;;
27219;SDS011;45274;52.266;10.790;2023-12-29T10:58:03;3.28;;;0.75;;
27219;SDS011;45274;52.266;10.790;2023-12-29T11:00:31;3.90;;;1.00;;
27219;SDS011;45274;52.266;10.790;2023-12-29T11:02:57;1.88;;;0.70;;
27219;SDS011;45274;52.266;10.790;2023-12-29T11:05:26;2.33;;;0.60;;
27219;SDS011;45274;52.266;10.790;2023-12-29T11:07:53;4.32;;;0.80;;
27219;SDS011;45274;52.266;10.790;2023-12-29T11:10:19;5.63;;;0.80;;
27219;SDS011;45274;52.266;10.790;2023-12-29T11:12:45;3.00;;;0.63;;
27219;SDS011;45274;52.266;10.790;2023-12-29T11:15:10;3.05;;;0.70;;
27219;SDS011;45274;52.266;10.790;2023-12-29T11:17:38;2.35;;;0.80;;
27219;SDS011;45274;52.266;10.790;2023-12-29T11:20:03;4.85;;;0.77;;
27219;SDS011;45274;52.266;10.790;2023-12-29T11:22:29;4.13;;;0.70;;
27219;SDS011;45274;52.266;10.790;2023-12-29T11:24:55;1.98;;;0.90;;
27219;SDS011;45274;52.266;10.790;2023-12-29T11:27:23;5.65;;;0.95;;
27219;SDS011;45274;52.266;10.790;2023-12-29T11:29:50;3.83;;;1.13;;
27219;SDS011;45274;52.266;10.790;2023-12-29T11:32:20;3.40;;;1.00;;
27219;SDS011;45274;52.266;10.790;2023-12-29T11:34:56;3.50;;;0.80;;
27219;SDS011;45274;52.266;10.790;2023-12-29T11:39:59;2.67;;;0.80;;
27219;SDS011;45274;52.266;10.790;2023-12-29T11:42:31;2.50;;;0.70;;
27219;SDS011;45274;52.266;10.790;2023-12-29T11:44:58;5.60;;;0.77;;
27219;SDS011;45274;52.266;10.790;2023-12-29T11:47:41;2.13;;;0.60;;
27219;SDS011;45274;52.266;10.790;2023-12-29T11:50:06;2.30;;;0.60;;
27219;SDS011;45274;52.266;10.790;2023-12-29T11:52:32;3.53;;;0.80;;
27219;SDS011;45274;52.266;10.790;2023-12-29T11:55:06;1.65;;;0.90;;
27219;SDS011;45274;52.266;10.790;2023-12-29T11:57:32;4.28;;;1.05;;
27219;SDS011;45274;52.266;10.790;2023-12-29T11:59:57;2.47;;;0.60;;
27219;SDS011;45274;52.266;10.790;2023-12-29T12:02:26;4.00;;;1.02;;
27219;SDS011;45274;52.266;10.790;2023-12-29T12:04:52;1.60;;;1.00;;
27219;SDS011;45274;52.266;10.790;2023-12-29T12:09:42;4.07;;;0.70;;
27219;SDS011;45274;52.266;10.790;2023-12-29T12:12:08;1.88;;;0.63;;
27219;SDS011;45274;52.266;10.790;2023-12-29T12:14:51;1.17;;;0.52;;
27219;SDS011;45274;52.266;10.790;2023-12-29T12:17:32;1.80;;;0.80;;
27219;SDS011;45274;52.266;10.790;2023-12-29T12:20:07;1.90;;;0.70;;
27219;SDS011;45274;52.266;10.790;2023-12-29T12:22:36;1.02;;;0.63;;
27219;SDS011;45274;52.266;10.790;2023-12-29T12:25:02;2.30;;;0.40;;
27219;SDS011;45274;52.266;10.790;2023-12-29T12:27:28;2.65;;;0.70;;
27219;SDS011;45274;52.266;10.790;2023-12-29T12:29:55;1.38;;;0.70;;
27219;SDS011;45274;52.266;10.790;2023-12-29T12:32:22;1.58;;;0.55;;
27219;SDS011;45274;52.266;10.790;2023-12-29T12:34:47;0.50;;;0.43;;
27219;SDS011;45274;52.266;10.790;2023-12-29T12:37:18;1.17;;;0.50;;
27219;SDS011;45274;52.266;10.790;2023-12-29T12:39:43;2.72;;;0.60;;
27219;SDS011;45274;52.266;10.790;2023-12-29T12:42:08;1.75;;;1.00;;
27219;SDS011;45274;52.266;10.790;2023-12-29T12:44:34;0.75;;;0.50;;
27219;SDS011;45274;52.266;10.790;2023-12-29T12:46:59;0.75;;;0.40;;
27219;SDS011;45274;52.266;10.790;2023-12-29T12:49:28;4.40;;;0.70;;
27219;SDS011;45274;52.266;10.790;2023-12-29T12:51:55;3.40;;;0.63;;
27219;SDS011;45274;52.266;10.790;2023-12-29T12:54:20;2.30;;;0.50;;
27219;SDS011;45274;52.266;10.790;2023-12-29T12:56:46;1.95;;;0.50;;
27219;SDS011;45274;52.266;10.790;2023-12-29T12:59:12;1.75;;;0.68;;
27219;SDS011;45274;52.266;10.790;2023-12-29T13:01:37;1.00;;;0.45;;
27219;SDS011;45274;52.266;10.790;2023-12-29T13:04:03;1.15;;;0.47;;
27219;SDS011;45274;52.266;10.790;2023-12-29T13:06:29;1.50;;;0.57;;
27219;SDS011;45274;52.266;10.790;2023-12-29T13:08:54;3.13;;;0.75;;
27219;SDS011;45274;52.266;10.790;2023-12-29T13:11:20;0.98;;;0.40;;
27219;SDS011;45274;52.266;10.790;2023-12-29T13:13:50;1.88;;;0.40;;
27219;SDS011;45274;52.266;10.790;2023-12-29T13:16:31;1.90;;;0.55;;
27219;SDS011;45274;52.266;10.790;2023-12-29T13:18:56;1.63;;;0.70;;
27219;SDS011;45274;52.266;10.790;2023-12-29T13:21:22;1.73;;;0.52;;
27219;SDS011;45274;52.266;10.790;2023-12-29T13:23:47;0.38;;;0.30;;
27219;SDS011;45274;52.266;10.790;2023-12-29T13:26:13;1.00;;;0.40;;
27219;SDS011;45274;52.266;10.790;2023-12-29T13:28:39;1.50;;;0.40;;
27219;SDS011;45274;52.266;10.790;2023-12-29T13:31:04;0.75;;;0.57;;
27219;SDS011;45274;52.266;10.790;2023-12-29T13:36:05;0.98;;;0.50;;
27219;SDS011;45274;52.266;10.790;2023-12-29T13:41:09;1.08;;;0.50;;
27219;SDS011;45274;52.266;10.790;2023-12-29T13:43:37;1.30;;;0.60;;
27219;SDS011;45274;52.266;10.790;2023-12-29T13:46:04;4.20;;;0.80;;
27219;SDS011;45274;52.266;10.790;2023-12-29T13:48:29;1.25;;;0.60;;
27219;SDS011;45274;52.266;10.790;2023-12-29T13:50:55;2.10;;;0.50;;
27219;SDS011;45274;52.266;10.790;2023-12-29T13:53:20;1.67;;;0.55;;
27219;SDS011;45274;52.266;10.790;2023-12-29T13:55:46;1.67;;;1.05;;
27219;SDS011;45274;52.266;10.790;2023-12-29T13:58:11;0.73;;;0.73;;
27219;SDS011;45274;52.266;10.790;2023-12-29T14:00:37;0.40;;;0.40;;
27219;SDS011;45274;52.266;10.790;2023-12-29T14:03:05;0.57;;;0.30;;
27219;SDS011;45274;52.266;10.790;2023-12-29T14:05:31;0.60;;;0.30;;
27219;SDS011;45274;52.266;10.790;2023-12-29T14:08:04;0.30;;;0.30;;
27219;SDS011;45274;52.266;10.790;2023-12-29T14:13:03;1.90;;;0.60;;
27219;SDS011;45274;52.266;10.790;2023-12-29T14:15:28;0.75;;;0.50;;
27219;SDS011;45274;52.266;10.790;2023-12-29T14:17:58;1.80;;;0.65;;
27219;SDS011;45274;52.266;10.790;2023-12-29T14:20:32;0.40;;;0.38;;
27219;SDS011;45274;52.266;10.790;2023-12-29T14:23:04;0.52;;;0.47;;
27219;SDS011;45274;52.266;10.790;2023-12-29T14:25:36;1.27;;;0.52;;
27219;SDS011;45274;52.266;10.790;2023-12-29T14:28:02;0.50;;;0.40;;
27219;SDS011;45274;52.266;10.790;2023-12-29T14:30:27;0.55;;;0.40;;
27219;SDS011;45274;52.266;10.790;2023-12-29T14:32:56;0.30;;;0.30;;
27219;SDS011;45274;52.266;10.790;2023-12-29T14:35:21;0.63;;;0.50;;
27219;SDS011;45274;52.266;10.790;2023-12-29T14:37:46;0.63;;;0.47;;
27219;SDS011;45274;52.266;10.790;2023-12-29T14:40:12;0.60;;;0.40;;
27219;SDS011;45274;52.266;10.790;2023-12-29T14:42:37;0.30;;;0.30;;
27219;SDS011;45274;52.266;10.790;2023-12-29T14:45:05;0.75;;;0.30;;
27219;SDS011;45274;52.266;10.790;2023-12-29T14:47:30;1.10;;;0.70;;